createdAt,value
2018-12-24T00:01:28.140Z,1.17
2018-12-24T00:03:57.601Z,1.22
2018-12-24T00:06:27.351Z,1.19
2018-12-24T00:08:56.821Z,1.14
2018-12-24T00:11:26.345Z,1.14
2018-12-24T00:13:56.180Z,1.21
2018-12-24T00:16:25.877Z,1.25
2018-12-24T00:18:55.372Z,1.18
2018-12-24T00:21:25.143Z,1.04
2018-12-24T00:23:54.544Z,0.97
2018-12-24T00:26:24.080Z,0.94
2018-12-24T00:28:54.100Z,1.08
2018-12-24T00:31:23.435Z,1.08
2018-12-24T00:33:52.970Z,1.10
2018-12-24T00:36:22.555Z,1.24
2018-12-24T00:38:52.229Z,1.31
2018-12-24T00:41:21.563Z,1.38
2018-12-24T00:43:51.614Z,1.45
2018-12-24T00:46:21.070Z,1.12
2018-12-24T00:48:50.678Z,1.49
2018-12-24T00:51:21.285Z,1.54
2018-12-24T00:53:51.114Z,1.63
2018-12-24T00:56:20.592Z,1.58
2018-12-24T00:58:50.364Z,1.68
2018-12-24T01:01:20.163Z,1.68
2018-12-24T01:03:49.868Z,1.69
2018-12-24T01:06:19.424Z,1.75
2018-12-24T01:08:48.971Z,1.76
2018-12-24T01:11:18.670Z,1.68
2018-12-24T01:13:48.577Z,1.78
2018-12-24T01:16:18.402Z,1.73
2018-12-24T01:18:48.115Z,1.72
2018-12-24T01:21:18.504Z,1.70
2018-12-24T01:23:48.039Z,1.62
2018-12-24T01:26:17.749Z,1.56
2018-12-24T01:28:47.503Z,1.53
2018-12-24T01:31:16.962Z,1.55
2018-12-24T01:33:46.562Z,1.51
2018-12-24T01:36:16.527Z,1.44
2018-12-24T01:38:46.196Z,1.48
2018-12-24T01:41:15.764Z,1.43
2018-12-24T01:43:45.692Z,1.42
2018-12-24T01:46:15.339Z,1.35
2018-12-24T01:48:45.042Z,1.36
2018-12-24T01:51:14.733Z,1.38
2018-12-24T01:53:44.391Z,1.39
2018-12-24T01:56:13.995Z,1.43
2018-12-24T01:58:43.373Z,1.42
2018-12-24T02:01:13.059Z,1.29
2018-12-24T02:03:43.249Z,1.27
2018-12-24T02:06:12.793Z,1.28
2018-12-24T02:08:42.410Z,1.26
2018-12-24T02:11:12.208Z,1.15
2018-12-24T02:13:41.655Z,1.29
2018-12-24T02:16:11.267Z,1.21
2018-12-24T02:18:41.003Z,1.20
2018-12-24T02:21:10.687Z,1.21
2018-12-24T02:23:40.487Z,1.25
2018-12-24T02:26:10.867Z,1.04
2018-12-24T02:28:40.529Z,0.93
2018-12-24T02:31:10.033Z,0.66
2018-12-24T02:33:39.774Z,0.64
2018-12-24T02:36:09.464Z,0.53
2018-12-24T02:38:39.088Z,0.50
2018-12-24T02:41:08.674Z,0.59
2018-12-24T02:43:38.100Z,0.67
2018-12-24T02:46:07.595Z,0.76
2018-12-24T02:48:37.478Z,0.77
2018-12-24T02:51:07.619Z,0.80
2018-12-24T02:53:37.240Z,0.75
2018-12-24T02:56:07.195Z,0.75
2018-12-24T02:58:36.852Z,0.77
2018-12-24T03:01:06.572Z,0.81
2018-12-24T03:03:36.271Z,0.75
2018-12-24T03:06:05.990Z,0.82
2018-12-24T03:08:35.595Z,0.75
2018-12-24T03:11:05.329Z,0.73
2018-12-24T03:13:35.043Z,0.70
2018-12-24T03:16:04.763Z,0.65
2018-12-24T03:18:35.830Z,0.68
2018-12-24T03:21:05.356Z,0.73
2018-12-24T03:23:35.112Z,0.58
2018-12-24T03:26:04.691Z,0.51
2018-12-24T03:28:34.344Z,0.38
2018-12-24T03:31:03.900Z,0.49
2018-12-24T03:33:33.607Z,0.54
2018-12-24T03:36:03.220Z,0.58
2018-12-24T03:38:33.081Z,0.54
2018-12-24T03:41:02.635Z,0.53
2018-12-24T03:43:32.148Z,0.56
2018-12-24T03:46:02.015Z,0.65
2018-12-24T03:48:31.684Z,0.47
2018-12-24T03:51:01.307Z,0.42
2018-12-24T03:53:31.487Z,0.49
2018-12-24T03:56:01.299Z,0.49
2018-12-24T03:58:31.183Z,0.57
2018-12-24T04:01:01.102Z,0.51
2018-12-24T04:03:30.552Z,0.56
2018-12-24T04:06:00.270Z,0.56
2018-12-24T04:08:30.014Z,0.53
2018-12-24T04:10:59.487Z,0.55
2018-12-24T04:13:29.208Z,0.52
2018-12-24T04:15:58.707Z,0.48
2018-12-24T04:18:28.384Z,0.51
2018-12-24T04:20:58.213Z,0.57
2018-12-24T04:23:28.164Z,0.60
2018-12-24T04:25:57.851Z,0.55
2018-12-24T04:28:27.619Z,0.48
2018-12-24T04:30:57.128Z,0.45
2018-12-24T04:33:26.647Z,0.42
2018-12-24T04:35:56.275Z,0.45
2018-12-24T04:38:26.141Z,0.51
2018-12-24T04:40:55.600Z,0.44
2018-12-24T04:43:32.045Z,0.45
2018-12-24T04:45:55.261Z,0.30
2018-12-24T04:48:24.651Z,0.20
2018-12-24T04:50:54.215Z,0.17
2018-12-24T04:53:23.596Z,-0.26
2018-12-24T04:55:53.031Z,0.08
2018-12-24T04:58:22.646Z,0.11
2018-12-24T05:00:52.263Z,0.12
2018-12-24T05:03:21.609Z,0.13
2018-12-24T05:05:51.399Z,0.08
2018-12-24T05:08:20.787Z,0.11
2018-12-24T05:10:50.505Z,0.09
2018-12-24T05:13:20.140Z,0.00
2018-12-24T05:15:49.711Z,-0.09
2018-12-24T05:18:19.323Z,-0.04
2018-12-24T05:20:49.264Z,0.00
2018-12-24T05:23:18.839Z,0.09
2018-12-24T05:25:48.329Z,0.11
2018-12-24T05:28:19.355Z,0.02
2018-12-24T05:30:49.071Z,0.12
2018-12-24T05:33:18.798Z,0.05
2018-12-24T05:35:48.551Z,0.08
2018-12-24T05:38:18.021Z,0.02
2018-12-24T05:40:47.538Z,-0.01
2018-12-24T05:43:17.494Z,0.10
2018-12-24T05:45:46.920Z,0.09
2018-12-24T05:48:16.577Z,0.12
2018-12-24T05:50:46.425Z,0.12
2018-12-24T05:53:15.772Z,0.03
2018-12-24T05:55:45.411Z,-0.07
2018-12-24T05:58:15.196Z,-0.10
2018-12-24T06:00:44.953Z,0.00
2018-12-24T06:03:14.524Z,-0.01
2018-12-24T06:05:44.116Z,-0.03
2018-12-24T06:08:13.521Z,-0.07
2018-12-24T06:10:43.535Z,-0.07
2018-12-24T06:13:12.991Z,-0.01
2018-12-24T06:15:42.433Z,-0.09
2018-12-24T06:18:12.269Z,-0.25
2018-12-24T06:20:41.972Z,-0.05
2018-12-24T06:23:11.492Z,-0.02
2018-12-24T06:25:41.267Z,-0.04
2018-12-24T06:28:10.920Z,0.09
2018-12-24T06:30:40.396Z,0.32
2018-12-24T06:33:16.813Z,0.29
2018-12-24T06:35:46.160Z,0.32
2018-12-24T06:38:15.678Z,0.33
2018-12-24T06:40:45.631Z,0.39
2018-12-24T06:43:15.257Z,0.44
2018-12-24T06:45:44.690Z,0.52
2018-12-24T06:48:14.444Z,0.65
2018-12-24T06:50:44.155Z,0.68
2018-12-24T06:53:13.840Z,0.75
2018-12-24T06:55:43.260Z,0.87
2018-12-24T06:58:12.959Z,0.93
2018-12-24T07:00:43.011Z,1.09
2018-12-24T07:03:12.724Z,1.20
2018-12-24T07:05:42.399Z,1.15
2018-12-24T07:08:12.238Z,1.24
2018-12-24T07:10:42.058Z,1.24
2018-12-24T07:13:11.846Z,1.35
2018-12-24T07:15:41.837Z,1.47
2018-12-24T07:18:11.598Z,1.55
2018-12-24T07:20:41.626Z,1.54
2018-12-24T07:23:11.206Z,1.62
2018-12-24T07:25:40.831Z,1.70
2018-12-24T07:28:10.317Z,1.82
2018-12-24T07:30:39.828Z,2.01
2018-12-24T07:33:09.523Z,2.13
2018-12-24T07:35:39.022Z,2.16
2018-12-24T07:38:08.333Z,2.32
2018-12-24T07:40:38.157Z,2.40
2018-12-24T07:43:08.884Z,2.47
2018-12-24T07:45:38.252Z,2.69
2018-12-24T07:48:07.950Z,2.69
2018-12-24T07:50:37.371Z,2.79
2018-12-24T07:53:07.221Z,2.85
2018-12-24T07:55:37.300Z,2.89
2018-12-24T07:58:06.983Z,2.90
2018-12-24T08:00:36.661Z,3.04
2018-12-24T08:03:06.547Z,3.21
2018-12-24T08:05:36.311Z,3.12
2018-12-24T08:08:05.773Z,3.09
2018-12-24T08:10:35.471Z,3.08
2018-12-24T08:13:05.218Z,3.14
2018-12-24T08:15:34.706Z,3.21
2018-12-24T08:18:04.481Z,3.24
2018-12-24T08:20:34.065Z,3.04
2018-12-24T08:23:03.632Z,2.98
2018-12-24T08:25:33.421Z,3.05
2018-12-24T08:28:03.173Z,3.04
2018-12-24T08:30:32.872Z,3.06
2018-12-24T08:33:02.655Z,3.25
2018-12-24T08:35:32.316Z,3.40
2018-12-24T08:38:02.178Z,3.58
2018-12-24T08:40:32.171Z,3.65
2018-12-24T08:43:01.627Z,3.72
2018-12-24T08:45:31.269Z,3.89
2018-12-24T08:48:01.203Z,4.11
2018-12-24T08:50:30.784Z,4.44
2018-12-24T08:53:00.624Z,4.67
2018-12-24T08:55:30.328Z,4.62
2018-12-24T08:58:00.091Z,4.85
2018-12-24T09:00:29.703Z,5.30
2018-12-24T09:02:59.551Z,5.40
2018-12-24T09:05:29.235Z,5.77
2018-12-24T09:07:58.848Z,5.88
2018-12-24T09:10:28.986Z,6.12
2018-12-24T09:12:58.679Z,5.65
2018-12-24T09:15:28.207Z,5.99
2018-12-24T09:17:58.111Z,6.15
2018-12-24T09:20:27.787Z,6.28
2018-12-24T09:22:57.300Z,6.55
2018-12-24T09:25:27.365Z,6.51
2018-12-24T09:27:57.063Z,6.69
2018-12-24T09:30:26.510Z,7.03
2018-12-24T09:32:56.327Z,7.44
2018-12-24T09:35:25.969Z,7.46
2018-12-24T09:37:55.787Z,7.46
2018-12-24T09:40:25.638Z,7.48
2018-12-24T09:42:55.192Z,7.29
2018-12-24T09:45:24.595Z,7.66
2018-12-24T09:47:54.360Z,7.96
2018-12-24T09:50:23.767Z,8.04
2018-12-24T09:52:53.436Z,7.79
2018-12-24T09:55:23.028Z,7.60
2018-12-24T09:57:52.744Z,7.35
2018-12-24T10:00:22.147Z,7.14
2018-12-24T10:03:01.065Z,6.81
2018-12-24T10:05:30.780Z,6.57
2018-12-24T10:08:03.572Z,6.41
2018-12-24T10:10:33.111Z,6.29
2018-12-24T10:13:02.651Z,6.27
2018-12-24T10:15:32.278Z,6.15
2018-12-24T10:18:02.032Z,5.98
2018-12-24T10:20:31.619Z,5.99
2018-12-24T10:23:01.551Z,5.81
2018-12-24T10:25:31.279Z,5.83
2018-12-24T10:28:00.937Z,5.94
2018-12-24T10:30:30.728Z,5.90
2018-12-24T10:33:00.268Z,5.87
2018-12-24T10:35:29.859Z,5.90
2018-12-24T10:37:59.608Z,5.97
2018-12-24T10:40:29.430Z,6.15
2018-12-24T10:42:59.419Z,6.08
2018-12-24T10:45:29.283Z,6.21
2018-12-24T10:47:58.961Z,6.39
2018-12-24T10:50:28.548Z,6.50
2018-12-24T10:52:58.312Z,6.48
2018-12-24T10:55:27.875Z,6.68
2018-12-24T10:57:57.678Z,7.03
2018-12-24T11:00:27.664Z,7.43
2018-12-24T11:02:57.322Z,7.48
2018-12-24T11:05:27.019Z,7.75
2018-12-24T11:07:56.660Z,7.76
2018-12-24T11:10:26.841Z,7.76
2018-12-24T11:12:56.251Z,7.94
2018-12-24T11:15:26.049Z,7.85
2018-12-24T11:17:55.792Z,7.90
2018-12-24T11:20:25.383Z,8.17
2018-12-24T11:22:55.020Z,8.54
2018-12-24T11:25:24.566Z,8.86
2018-12-24T11:27:54.010Z,9.40
2018-12-24T11:30:23.703Z,10.07
2018-12-24T11:32:53.285Z,11.34
2018-12-24T11:35:22.768Z,12.19
2018-12-24T11:37:53.003Z,12.81
2018-12-24T11:40:22.351Z,12.49
2018-12-24T11:42:52.075Z,11.76
2018-12-24T11:45:21.780Z,11.88
2018-12-24T11:47:51.388Z,11.94
2018-12-24T11:50:20.737Z,12.07
2018-12-24T11:52:50.538Z,12.13
2018-12-24T11:55:19.955Z,11.60
2018-12-24T11:57:49.408Z,11.53
2018-12-24T12:00:19.379Z,11.48
2018-12-24T12:02:49.031Z,11.43
2018-12-24T12:05:18.791Z,11.28
2018-12-24T12:07:48.653Z,11.31
2018-12-24T12:10:18.278Z,11.20
2018-12-24T12:12:48.201Z,11.07
2018-12-24T12:15:18.023Z,10.73
2018-12-24T12:17:47.601Z,10.49
2018-12-24T12:20:17.096Z,10.73
2018-12-24T12:22:46.650Z,10.81
2018-12-24T12:25:15.963Z,11.08
2018-12-24T12:27:45.842Z,11.36
2018-12-24T12:30:15.771Z,11.44
2018-12-24T12:32:45.475Z,11.24
2018-12-24T12:35:15.294Z,11.20
2018-12-24T12:37:46.204Z,11.15
2018-12-24T12:40:15.016Z,11.15
2018-12-24T12:42:44.726Z,11.15
2018-12-24T12:45:15.101Z,11.14
2018-12-24T12:47:44.855Z,11.55
2018-12-24T12:50:14.545Z,11.64
2018-12-24T12:52:44.498Z,11.55
2018-12-24T12:55:14.259Z,11.68
2018-12-24T12:57:43.891Z,11.54
2018-12-24T13:00:13.858Z,11.28
2018-12-24T13:02:43.213Z,11.04
2018-12-24T13:05:19.382Z,11.07
2018-12-24T13:07:49.094Z,11.05
2018-12-24T13:10:18.508Z,11.14
2018-12-24T13:12:48.227Z,10.93
2018-12-24T13:15:17.651Z,11.00
2018-12-24T13:17:47.210Z,11.08
2018-12-24T13:20:24.814Z,11.00
2018-12-24T13:22:46.644Z,10.98
2018-12-24T13:25:16.243Z,11.04
2018-12-24T13:27:46.157Z,11.06
2018-12-24T13:30:15.786Z,11.04
2018-12-24T13:32:46.655Z,11.18
2018-12-24T13:35:16.551Z,11.16
2018-12-24T13:37:46.052Z,11.17
2018-12-24T13:40:15.676Z,11.10
2018-12-24T13:42:45.464Z,11.10
2018-12-24T13:45:15.219Z,11.16
2018-12-24T13:47:44.855Z,11.20
2018-12-24T13:50:14.274Z,11.11
2018-12-24T13:52:43.983Z,11.01
2018-12-24T13:55:13.810Z,11.02
2018-12-24T13:57:43.235Z,11.12
2018-12-24T14:00:12.894Z,11.06
2018-12-24T14:02:42.635Z,10.98
2018-12-24T14:05:12.616Z,10.96
2018-12-24T14:07:42.451Z,11.06
2018-12-24T14:10:12.066Z,10.97
2018-12-24T14:12:41.723Z,10.86
2018-12-24T14:15:11.331Z,10.99
2018-12-24T14:17:40.980Z,10.84
2018-12-24T14:20:10.693Z,10.79
2018-12-24T14:22:40.192Z,10.62
2018-12-24T14:25:10.194Z,10.51
2018-12-24T14:27:39.763Z,10.40
2018-12-24T14:30:11.066Z,10.36
2018-12-24T14:32:42.263Z,10.24
2018-12-24T14:35:11.871Z,10.19
2018-12-24T14:37:41.426Z,10.20
2018-12-24T14:40:10.882Z,10.04
2018-12-24T14:42:40.543Z,9.83
2018-12-24T14:45:10.567Z,9.64
2018-12-24T14:47:40.403Z,9.52
2018-12-24T14:50:09.991Z,9.35
2018-12-24T14:52:39.610Z,9.41
2018-12-24T14:55:09.598Z,9.28
2018-12-24T14:57:39.336Z,9.05
2018-12-24T15:00:09.055Z,9.05
2018-12-24T15:02:38.987Z,9.19
2018-12-24T15:05:08.584Z,9.41
2018-12-24T15:07:38.008Z,9.17
2018-12-24T15:10:07.800Z,8.89
2018-12-24T15:12:37.391Z,8.79
2018-12-24T15:15:07.072Z,8.65
2018-12-24T15:17:36.862Z,8.46
2018-12-24T15:20:06.905Z,8.36
2018-12-24T15:22:36.500Z,8.48
2018-12-24T15:25:06.080Z,8.48
2018-12-24T15:27:35.645Z,8.37
2018-12-24T15:30:05.511Z,8.26
2018-12-24T15:32:35.240Z,7.99
2018-12-24T15:35:04.889Z,7.67
2018-12-24T15:37:34.479Z,7.35
2018-12-24T15:40:04.451Z,6.88
2018-12-24T15:42:33.776Z,6.70
2018-12-24T15:45:03.354Z,6.60
2018-12-24T15:47:33.216Z,6.54
2018-12-24T15:50:02.978Z,6.53
2018-12-24T15:52:32.757Z,6.42
2018-12-24T15:55:03.263Z,6.36
2018-12-24T15:57:32.786Z,6.32
2018-12-24T16:00:02.295Z,6.38
2018-12-24T16:02:32.892Z,6.55
2018-12-24T16:22:23.973Z,5.75
2018-12-24T16:24:53.508Z,5.79
2018-12-24T16:27:22.926Z,5.72
2018-12-24T16:29:52.471Z,5.63
2018-12-24T16:32:21.979Z,5.54
2018-12-24T16:34:51.471Z,5.69
2018-12-24T16:37:20.881Z,5.69
2018-12-24T16:39:50.409Z,5.58
2018-12-24T16:42:20.673Z,5.42
2018-12-24T16:44:50.136Z,5.25
2018-12-24T16:47:19.680Z,5.27
2018-12-24T16:49:49.033Z,5.30
2018-12-24T16:52:18.529Z,5.23
2018-12-24T16:54:48.474Z,5.10
2018-12-24T16:57:18.231Z,5.13
2018-12-24T16:59:47.770Z,5.11
2018-12-24T17:02:17.510Z,5.11
2018-12-24T17:04:47.379Z,5.03
2018-12-24T17:07:17.028Z,5.05
2018-12-24T17:09:46.639Z,5.06
2018-12-24T17:12:16.006Z,5.10
2018-12-24T17:14:45.705Z,4.94
2018-12-24T17:17:15.776Z,4.93
2018-12-24T17:19:45.234Z,4.83
2018-12-24T17:22:14.870Z,4.96
2018-12-24T17:24:44.531Z,4.87
2018-12-24T17:27:13.776Z,4.75
2018-12-24T17:29:43.272Z,4.71
2018-12-24T17:32:13.212Z,4.69
2018-12-24T17:34:43.017Z,4.72
2018-12-24T17:54:34.743Z,4.50
2018-12-24T17:57:04.471Z,4.44
2018-12-24T17:59:34.165Z,4.38
2018-12-24T18:02:03.927Z,4.40
2018-12-24T18:04:33.483Z,4.30
2018-12-24T18:07:03.087Z,4.20
2018-12-24T18:09:32.836Z,4.15
2018-12-24T18:12:02.527Z,4.18
2018-12-24T18:14:32.061Z,4.23
2018-12-24T18:17:01.843Z,4.16
2018-12-24T18:19:31.145Z,4.17
2018-12-24T18:22:01.263Z,4.07
2018-12-24T18:24:31.003Z,4.09
2018-12-24T18:27:00.559Z,4.10
2018-12-24T18:29:30.042Z,4.13
2018-12-24T18:31:59.923Z,4.12
2018-12-24T18:51:52.059Z,3.96
2018-12-24T18:54:21.471Z,4.20
2018-12-24T18:56:50.972Z,4.22
2018-12-24T18:59:20.216Z,4.23
2018-12-24T19:01:49.822Z,4.15
2018-12-24T19:04:19.160Z,4.02
2018-12-24T19:06:48.625Z,3.99
2018-12-24T19:09:18.677Z,3.94
2018-12-24T19:11:48.324Z,3.79
2018-12-24T19:14:17.956Z,3.81
2018-12-24T19:16:47.634Z,3.79
2018-12-24T19:19:17.281Z,3.77
2018-12-24T19:39:10.429Z,3.48
2018-12-24T19:41:39.739Z,3.50
2018-12-24T19:44:09.255Z,3.45
2018-12-24T19:46:38.859Z,3.52
2018-12-24T19:49:08.427Z,3.64
2018-12-24T19:51:37.750Z,3.75
2018-12-24T19:54:07.465Z,3.62
2018-12-24T19:56:37.167Z,3.57
2018-12-24T19:59:06.550Z,3.81
2018-12-24T20:01:36.408Z,3.74
2018-12-24T20:04:06.401Z,3.54
2018-12-24T20:23:58.471Z,3.31
2018-12-24T20:43:49.907Z,3.14
2018-12-24T21:03:41.724Z,3.25
2018-12-24T21:06:11.353Z,2.95
2018-12-24T21:08:40.951Z,2.93
2018-12-24T21:11:11.003Z,2.76
2018-12-24T21:13:40.806Z,2.82
2018-12-24T21:16:10.147Z,2.74
2018-12-24T21:18:41.538Z,2.80
2018-12-24T21:21:09.499Z,2.73
2018-12-24T21:23:39.220Z,2.75
2018-12-24T21:26:08.724Z,2.89
2018-12-24T21:28:38.229Z,2.71
2018-12-24T21:31:07.750Z,2.64
2018-12-24T21:33:37.636Z,2.68
2018-12-24T21:36:07.397Z,2.75
2018-12-24T21:55:58.673Z,2.66
2018-12-24T22:15:50.023Z,2.60
2018-12-24T22:18:19.731Z,2.63
2018-12-24T22:20:49.188Z,2.66
2018-12-24T22:23:18.860Z,2.71
2018-12-24T22:25:48.899Z,2.57
2018-12-24T22:28:18.438Z,2.65
2018-12-24T22:30:48.109Z,2.66
2018-12-24T22:33:17.673Z,2.63
2018-12-24T22:35:47.281Z,2.59
2018-12-24T22:38:16.938Z,2.50
2018-12-24T22:40:46.591Z,2.57
2018-12-24T22:43:16.286Z,2.54
2018-12-24T23:03:08.131Z,2.55
2018-12-24T23:23:00.538Z,2.29
2018-12-24T23:25:30.280Z,2.26
2018-12-24T23:27:59.831Z,2.18
2018-12-24T23:30:29.359Z,2.21
2018-12-24T23:32:59.219Z,2.25
2018-12-24T23:35:28.793Z,2.24
2018-12-24T23:37:58.491Z,2.21
2018-12-24T23:40:28.538Z,2.20
2018-12-24T23:42:58.122Z,2.23
2018-12-24T23:45:27.828Z,2.21
2018-12-24T23:47:57.501Z,2.06
2018-12-24T23:50:27.054Z,1.99
2018-12-24T23:52:56.605Z,1.93
2018-12-24T23:55:26.442Z,1.92
2018-12-24T23:57:56.075Z,1.76
